Time;durP1;ratioP1;P1;durP2;ratioP2;P2;SDS_P1;SDS_P2;PMS_P1;PMS_P2;Temp;Humidity;BMP_temperature;BMP_pressure;BME280_temperature;BME280_humidity;BME280_pressure;Samples;Min_cycle;Max_cycle;Signal;HPM_P1;HPM_P2
2022/01/13 00:01:54;;;;;;;4.05;3.65;;;;;;;;;;5039119;28;20451;-57
2022/01/13 00:04:20;;;;;;;5.53;4.10;;;;;;;;;;5038292;28;20025;-57
2022/01/13 00:06:46;;;;;;;4.07;3.67;;;;;;;;;;5037655;28;20055;-57
2022/01/13 00:09:11;;;;;;;5.47;4.45;;;;;;;;;;5042167;28;20037;-57
2022/01/13 00:11:37;;;;;;;5.18;4.55;;;;;;;;;;5040957;28;20112;-57
2022/01/13 00:19:36;;;;;;;6.35;4.78;;;;;;;;;;5038939;28;20143;-57
2022/01/13 00:22:38;;;;;;;6.10;5.18;;;;;;;;;;5040051;28;20040;-57
2022/01/13 00:25:04;;;;;;;;;;;;;;;;;;5040258;28;20025;-57
2022/01/13 00:27:30;;;;;;;4.47;3.95;;;;;;;;;;5041658;28;19935;-57
2022/01/13 00:29:59;;;;;;;4.70;4.15;;;;;;;;;;5038443;28;20106;-57
2022/01/13 00:32:28;;;;;;;4.68;3.97;;;;;;;;;;5036052;28;20037;-57
2022/01/13 00:34:53;;;;;;;4.38;3.67;;;;;;;;;;5039417;28;20029;-57
2022/01/13 00:37:19;;;;;;;4.65;4.15;;;;;;;;;;5041939;28;20086;-57
2022/01/13 00:39:44;;;;;;;5.10;4.50;;;;;;;;;;5038073;28;20435;-58
2022/01/13 00:42:09;;;;;;;4.63;4.03;;;;;;;;;;5038658;28;20589;-57
2022/01/13 00:44:37;;;;;;;5.43;3.60;;;;;;;;;;5040225;28;20033;-57
2022/01/13 00:47:07;;;;;;;7.13;5.07;;;;;;;;;;5042330;28;20029;-57
2022/01/13 00:49:32;;;;;;;5.80;4.75;;;;;;;;;;5039307;28;20103;-57
2022/01/13 00:51:57;;;;;;;4.57;4.18;;;;;;;;;;5039067;28;20465;-58
2022/01/13 00:54:23;;;;;;;6.28;4.50;;;;;;;;;;5036922;28;20471;-56
2022/01/13 00:56:49;;;;;;;11.45;4.32;;;;;;;;;;5039875;28;20087;-56
2022/01/13 00:59:15;;;;;;;4.20;3.80;;;;;;;;;;5039409;28;20029;-56
2022/01/13 01:01:46;;;;;;;4.03;3.63;;;;;;;;;;5040306;28;20110;-56
2022/01/13 01:04:12;;;;;;;6.30;3.83;;;;;;;;;;5038584;28;20094;-56
2022/01/13 01:06:38;;;;;;;5.75;3.88;;;;;;;;;;5039468;28;20048;-54
2022/01/13 01:09:05;;;;;;;5.07;4.25;;;;;;;;;;5038335;28;20123;-56
2022/01/13 01:11:31;;;;;;;5.25;3.55;;;;;;;;;;5038336;28;20134;-56
2022/01/13 01:13:59;;;;;;;4.43;4.00;;;;;;;;;;5038078;28;20355;-57
2022/01/13 01:16:26;;;;;;;5.13;3.70;;;;;;;;;;5039511;28;20621;-56
2022/01/13 01:19:03;;;;;;;4.80;4.10;;;;;;;;;;5040670;28;20048;-57
2022/01/13 01:26:35;;;;;;;4.05;3.40;;;;;;;;;;5041299;28;20036;-59
2022/01/13 01:29:27;;;;;;;7.00;4.55;;;;;;;;;;5037649;28;20899;-59
2022/01/13 01:31:56;;;;;;;4.65;3.75;;;;;;;;;;5039600;28;20063;-59
2022/01/13 01:34:42;;;;;;;4.70;3.95;;;;;;;;;;5038060;28;20041;-59
2022/01/13 01:37:14;;;;;;;4.22;3.83;;;;;;;;;;5037839;28;20094;-59
2022/01/13 01:39:41;;;;;;;5.10;4.07;;;;;;;;;;5037986;28;20021;-59
2022/01/13 01:42:07;;;;;;;4.32;3.58;;;;;;;;;;5036434;28;20065;-59
2022/01/13 01:44:37;;;;;;;9.90;4.40;;;;;;;;;;5035427;28;20537;-59
2022/01/13 01:47:03;;;;;;;4.82;3.78;;;;;;;;;;5040529;28;20073;-59
2022/01/13 01:49:31;;;;;;;4.05;3.60;;;;;;;;;;5038232;28;20044;-59
2022/01/13 01:51:59;;;;;;;3.83;3.42;;;;;;;;;;5045988;28;20083;-59
2022/01/13 01:54:26;;;;;;;4.63;3.92;;;;;;;;;;5037511;28;20355;-59
2022/01/13 01:56:51;;;;;;;5.07;3.55;;;;;;;;;;5038610;28;20061;-59
2022/01/13 01:59:20;;;;;;;6.70;4.13;;;;;;;;;;5036405;28;20067;-59
2022/01/13 02:01:48;;;;;;;4.38;3.92;;;;;;;;;;5036886;28;20153;-59
2022/01/13 02:04:14;;;;;;;5.03;4.13;;;;;;;;;;5051509;28;20407;-58
2022/01/13 02:06:40;;;;;;;6.85;3.92;;;;;;;;;;5037116;28;20427;-59
2022/01/13 02:09:08;;;;;;;7.68;4.97;;;;;;;;;;5035282;28;20041;-59
2022/01/13 02:11:43;;;;;;;6.18;4.25;;;;;;;;;;5037823;28;20021;-59
2022/01/13 02:14:31;;;;;;;5.53;4.68;;;;;;;;;;5038042;28;20087;-60
2022/01/13 02:17:04;;;;;;;5.18;4.68;;;;;;;;;;5041443;28;20467;-59
2022/01/13 02:19:31;;;;;;;5.05;4.53;;;;;;;;;;5041480;28;20048;-59
2022/01/13 02:21:57;;;;;;;4.85;4.32;;;;;;;;;;5039577;28;20828;-59
2022/01/13 02:24:22;;;;;;;4.95;4.00;;;;;;;;;;5040362;28;20037;-59
2022/01/13 02:26:48;;;;;;;7.32;4.13;;;;;;;;;;5041869;28;20036;-59
2022/01/13 02:29:13;;;;;;;4.05;3.65;;;;;;;;;;5039303;28;20467;-59
2022/01/13 02:31:38;;;;;;;4.00;3.60;;;;;;;;;;5043695;28;20068;-61
2022/01/13 02:34:04;;;;;;;6.55;4.60;;;;;;;;;;5042194;28;20048;-60
2022/01/13 02:36:30;;;;;;;3.80;3.35;;;;;;;;;;5039229;28;20075;-60
2022/01/13 02:38:58;;;;;;;3.92;3.53;;;;;;;;;;5040310;28;20591;-60
2022/01/13 02:41:24;;;;;;;7.32;3.72;;;;;;;;;;5044766;28;20116;-60
2022/01/13 02:43:53;;;;;;;4.50;3.97;;;;;;;;;;5040439;28;20057;-60
2022/01/13 02:46:32;;;;;;;5.65;4.03;;;;;;;;;;5044052;28;20041;-60
2022/01/13 02:48:59;;;;;;;5.78;5.10;;;;;;;;;;5042439;28;20056;-60
2022/01/13 02:51:28;;;;;;;7.57;3.90;;;;;;;;;;5042022;28;20041;-61
2022/01/13 02:53:53;;;;;;;4.55;4.15;;;;;;;;;;5038082;28;20033;-60
2022/01/13 02:56:19;;;;;;;5.07;4.30;;;;;;;;;;5041955;28;20021;-60
2022/01/13 02:58:45;;;;;;;6.53;4.00;;;;;;;;;;5042140;28;20418;-60
2022/01/13 03:01:12;;;;;;;6.00;4.60;;;;;;;;;;5039105;28;20116;-60
2022/01/13 03:03:38;;;;;;;5.03;3.85;;;;;;;;;;5041487;28;20431;-59
2022/01/13 03:06:12;;;;;;;4.57;3.90;;;;;;;;;;5037784;28;20413;-59
2022/01/13 03:08:41;;;;;;;5.75;4.45;;;;;;;;;;5042580;28;20029;-59
2022/01/13 03:11:07;;;;;;;9.10;6.47;;;;;;;;;;5043519;28;20021;-59
2022/01/13 03:13:32;;;;;;;5.25;4.68;;;;;;;;;;5040175;28;20371;-59
2022/01/13 03:15:58;;;;;;;4.05;3.65;;;;;;;;;;5042183;28;20029;-59
2022/01/13 03:18:23;;;;;;;6.43;4.22;;;;;;;;;;5043442;28;20037;-59
2022/01/13 03:20:49;;;;;;;4.68;4.20;;;;;;;;;;5040517;28;20363;-59
2022/01/13 03:23:18;;;;;;;4.47;3.92;;;;;;;;;;5044084;28;20031;-59
2022/01/13 03:25:45;;;;;;;5.43;4.70;;;;;;;;;;5038083;28;20045;-59
2022/01/13 03:28:17;;;;;;;5.88;4.82;;;;;;;;;;5041209;28;20419;-60
2022/01/13 03:30:43;;;;;;;4.90;4.40;;;;;;;;;;5039059;28;20448;-59
2022/01/13 03:33:09;;;;;;;5.80;4.32;;;;;;;;;;5039645;28;20040;-59
2022/01/13 03:35:37;;;;;;;6.07;4.32;;;;;;;;;;5042322;28;20043;-59
2022/01/13 03:38:03;;;;;;;4.97;3.63;;;;;;;;;;5046199;28;20033;-59
2022/01/13 03:40:29;;;;;;;5.40;4.50;;;;;;;;;;5039827;28;20462;-59
2022/01/13 03:42:54;;;;;;;4.95;4.15;;;;;;;;;;5040758;28;20072;-59
2022/01/13 03:45:21;;;;;;;5.07;4.57;;;;;;;;;;5041305;28;20029;-59
2022/01/13 03:47:46;;;;;;;10.63;5.15;;;;;;;;;;5041581;28;20044;-60
2022/01/13 03:50:12;;;;;;;6.07;4.22;;;;;;;;;;5039888;28;20430;-60
2022/01/13 03:53:21;;;;;;;4.60;4.20;;;;;;;;;;5039303;28;20112;-60
2022/01/13 03:55:46;;;;;;;6.50;4.03;;;;;;;;;;5039207;28;20041;-60
2022/01/13 03:58:43;;;;;;;6.40;5.10;;;;;;;;;;5037283;28;20636;-60
2022/01/13 04:01:52;;;;;;;4.75;3.83;;;;;;;;;;5038539;28;20040;-60
2022/01/13 04:04:17;;;;;;;4.65;4.10;;;;;;;;;;5039115;28;20057;-60
2022/01/13 04:06:45;;;;;;;3.83;3.42;;;;;;;;;;5040808;28;20065;-60
2022/01/13 04:09:23;;;;;;;8.25;5.55;;;;;;;;;;5040991;28;20386;-59
2022/01/13 04:11:48;;;;;;;5.38;4.10;;;;;;;;;;5040662;28;20040;-59
2022/01/13 04:14:13;;;;;;;10.73;3.72;;;;;;;;;;5041834;28;20036;-59
2022/01/13 04:16:39;;;;;;;5.32;4.18;;;;;;;;;;5038103;28;20194;-59
2022/01/13 04:19:06;;;;;;;4.18;3.55;;;;;;;;;;5040346;28;20022;-59
2022/01/13 04:21:34;;;;;;;5.05;4.55;;;;;;;;;;5037636;28;20043;-59
2022/01/13 04:24:00;;;;;;;6.32;4.28;;;;;;;;;;5039929;28;20025;-59
2022/01/13 04:26:30;;;;;;;4.78;4.07;;;;;;;;;;5039487;28;20037;-59
2022/01/13 04:31:42;;;;;;;4.70;4.20;;;;;;;;;;5041413;28;20037;-59
2022/01/13 04:34:08;;;;;;;7.53;5.43;;;;;;;;;;5041722;28;20644;-60
2022/01/13 04:36:33;;;;;;;7.63;4.78;;;;;;;;;;5040540;28;20051;-59
2022/01/13 04:38:59;;;;;;;4.68;4.22;;;;;;;;;;5037640;28;20033;-60
2022/01/13 04:41:35;;;;;;;6.45;4.68;;;;;;;;;;5038900;28;20084;-59
2022/01/13 04:44:05;;;;;;;4.78;4.28;;;;;;;;;;5038496;28;20056;-59
2022/01/13 04:46:30;;;;;;;5.35;4.47;;;;;;;;;;5036294;28;20029;-60
2022/01/13 04:48:55;;;;;;;6.65;4.15;;;;;;;;;;5037840;28;20044;-60
2022/01/13 04:51:21;;;;;;;5.82;4.25;;;;;;;;;;5040042;28;20073;-59
2022/01/13 04:53:46;;;;;;;5.03;4.03;;;;;;;;;;5040912;28;20123;-59
2022/01/13 04:56:15;;;;;;;5.63;4.43;;;;;;;;;;5040179;28;20033;-60
2022/01/13 04:58:41;;;;;;;6.97;5.85;;;;;;;;;;5038859;28;20082;-60
2022/01/13 05:01:07;;;;;;;4.65;4.22;;;;;;;;;;5036302;28;20069;-60
2022/01/13 05:03:33;;;;;;;7.43;5.97;;;;;;;;;;5037649;28;20033;-60
2022/01/13 05:05:58;;;;;;;5.55;5.00;;;;;;;;;;5038115;28;20501;-61
2022/01/13 05:08:24;;;;;;;7.10;5.15;;;;;;;;;;5038432;28;20039;-60
2022/01/13 05:10:49;;;;;;;5.75;5.05;;;;;;;;;;5039992;28;20026;-60
2022/01/13 05:13:15;;;;;;;8.07;5.53;;;;;;;;;;5037345;28;20036;-60
2022/01/13 05:15:43;;;;;;;6.68;5.22;;;;;;;;;;5040503;28;20043;-60
2022/01/13 05:18:24;;;;;;;5.20;4.10;;;;;;;;;;5037116;28;20163;-60
2022/01/13 05:20:57;;;;;;;5.90;4.93;;;;;;;;;;5039553;28;20031;-60
2022/01/13 05:23:23;;;;;;;7.72;5.63;;;;;;;;;;5037271;28;20259;-60
2022/01/13 05:25:48;;;;;;;4.70;4.10;;;;;;;;;;5039754;28;20052;-60
2022/01/13 05:28:14;;;;;;;6.63;5.82;;;;;;;;;;5036655;28;20112;-60
2022/01/13 05:30:40;;;;;;;7.80;6.13;;;;;;;;;;5038802;28;20093;-60
2022/01/13 05:33:06;;;;;;;6.03;3.92;;;;;;;;;;5037617;28;20167;-60
2022/01/13 05:35:32;;;;;;;4.63;3.97;;;;;;;;;;5036527;28;20048;-60
2022/01/13 05:37:58;;;;;;;5.22;4.50;;;;;;;;;;5038641;28;20116;-60
2022/01/13 05:40:23;;;;;;;7.47;4.65;;;;;;;;;;5039992;28;20140;-60
2022/01/13 05:42:50;;;;;;;9.77;4.95;;;;;;;;;;5037857;28;20399;-59
2022/01/13 05:45:19;;;;;;;4.97;4.35;;;;;;;;;;5042514;28;20025;-60
2022/01/13 05:47:47;;;;;;;8.30;5.50;;;;;;;;;;5038118;28;20360;-59
2022/01/13 05:50:15;;;;;;;5.63;4.30;;;;;;;;;;5042938;28;20082;-59
2022/01/13 05:52:40;;;;;;;14.05;5.53;;;;;;;;;;5043548;28;20459;-59
2022/01/13 05:55:07;;;;;;;6.47;4.85;;;;;;;;;;5042246;28;20048;-59
2022/01/13 05:57:32;;;;;;;5.35;4.80;;;;;;;;;;5041578;28;20041;-59
2022/01/13 05:59:58;;;;;;;5.30;4.40;;;;;;;;;;5045137;28;20032;-59
2022/01/13 06:02:23;;;;;;;5.07;4.35;;;;;;;;;;5043613;28;20041;-59
2022/01/13 06:04:49;;;;;;;8.40;4.28;;;;;;;;;;5040249;28;20371;-59
2022/01/13 06:07:16;;;;;;;4.90;4.28;;;;;;;;;;5045523;28;20095;-59
2022/01/13 06:09:42;;;;;;;17.75;6.18;;;;;;;;;;5042686;28;20455;-60
2022/01/13 06:12:08;;;;;;;5.95;5.35;;;;;;;;;;5043531;28;20409;-59
2022/01/13 06:14:33;;;;;;;4.35;3.45;;;;;;;;;;5043501;28;20136;-59
2022/01/13 06:16:59;;;;;;;5.90;4.97;;;;;;;;;;5041303;28;20028;-59
2022/01/13 06:19:24;;;;;;;6.05;4.72;;;;;;;;;;5042110;28;20089;-60
2022/01/13 06:21:50;;;;;;;10.77;4.75;;;;;;;;;;5043571;28;20029;-60
2022/01/13 06:24:15;;;;;;;7.95;5.45;;;;;;;;;;5041968;28;20041;-59
2022/01/13 06:26:41;;;;;;;6.35;5.57;;;;;;;;;;5042821;28;20037;-59
2022/01/13 06:29:06;;;;;;;6.70;5.68;;;;;;;;;;5039675;28;20549;-60
2022/01/13 06:31:32;;;;;;;9.98;5.28;;;;;;;;;;5038875;28;20211;-59
2022/01/13 06:33:57;;;;;;;10.38;5.57;;;;;;;;;;5042060;28;20139;-59
2022/01/13 06:36:22;;;;;;;5.60;4.95;;;;;;;;;;5041986;28;20094;-60
2022/01/13 06:38:49;;;;;;;6.88;5.63;;;;;;;;;;5042908;28;20033;-60
2022/01/13 06:41:15;;;;;;;5.85;5.25;;;;;;;;;;5041190;28;20071;-59
2022/01/13 06:43:41;;;;;;;13.60;5.95;;;;;;;;;;5040621;28;20033;-59
2022/01/13 06:46:06;;;;;;;9.95;5.10;;;;;;;;;;5043863;28;20034;-60
2022/01/13 06:48:32;;;;;;;8.23;5.55;;;;;;;;;;5043626;28;20094;-60
2022/01/13 06:50:58;;;;;;;8.88;5.57;;;;;;;;;;5041019;28;20191;-60
2022/01/13 06:53:24;;;;;;;5.70;5.03;;;;;;;;;;5039781;28;20033;-59
2022/01/13 06:55:51;;;;;;;10.25;6.57;;;;;;;;;;5044641;28;20037;-59
2022/01/13 06:58:16;;;;;;;9.52;7.43;;;;;;;;;;5038703;28;20090;-60
2022/01/13 07:00:42;;;;;;;6.22;5.00;;;;;;;;;;5040414;28;20458;-60
2022/01/13 07:03:08;;;;;;;8.73;5.57;;;;;;;;;;5041234;28;20029;-60
2022/01/13 07:05:34;;;;;;;5.93;5.32;;;;;;;;;;5041932;28;20033;-61
2022/01/13 07:07:59;;;;;;;7.80;6.22;;;;;;;;;;5040186;28;20120;-60
2022/01/13 07:10:25;;;;;;;9.27;6.05;;;;;;;;;;5038583;28;20363;-60
2022/01/13 07:12:50;;;;;;;6.03;5.28;;;;;;;;;;5042049;28;20040;-60
2022/01/13 07:15:16;;;;;;;6.43;5.07;;;;;;;;;;5046757;28;20624;-60
2022/01/13 07:17:42;;;;;;;4.43;4.03;;;;;;;;;;5036824;28;20051;-60
2022/01/13 07:20:08;;;;;;;6.05;5.45;;;;;;;;;;5038994;28;20104;-60
2022/01/13 07:22:37;;;;;;;7.57;4.78;;;;;;;;;;5039998;28;20142;-60
2022/01/13 07:25:02;;;;;;;6.15;5.28;;;;;;;;;;5043697;28;20406;-61
2022/01/13 07:27:28;;;;;;;6.07;4.20;;;;;;;;;;5037181;28;20040;-61
2022/01/13 07:29:53;;;;;;;7.88;6.22;;;;;;;;;;5039424;28;20032;-60
2022/01/13 07:32:18;;;;;;;5.57;4.85;;;;;;;;;;5039706;28;20527;-60
2022/01/13 07:34:44;;;;;;;22.60;6.35;;;;;;;;;;5040135;28;20033;-60
2022/01/13 07:37:09;;;;;;;5.80;4.90;;;;;;;;;;5038574;28;20060;-60
2022/01/13 07:39:38;;;;;;;7.20;6.47;;;;;;;;;;5039215;28;20370;-60
2022/01/13 07:42:04;;;;;;;6.72;5.35;;;;;;;;;;5038834;28;20168;-60
2022/01/13 07:44:30;;;;;;;7.30;5.65;;;;;;;;;;5038170;28;20382;-60
2022/01/13 07:46:58;;;;;;;6.05;5.45;;;;;;;;;;5039653;28;20039;-60
2022/01/13 07:49:23;;;;;;;6.28;5.68;;;;;;;;;;5042869;28;20033;-60
2022/01/13 07:51:49;;;;;;;5.45;4.07;;;;;;;;;;5041676;28;20091;-60
2022/01/13 07:54:14;;;;;;;9.05;6.57;;;;;;;;;;5040490;28;20067;-60
2022/01/13 07:56:39;;;;;;;6.22;4.85;;;;;;;;;;5039635;28;20362;-60
2022/01/13 07:59:05;;;;;;;9.38;5.70;;;;;;;;;;5039302;28;20082;-60
2022/01/13 08:01:30;;;;;;;7.90;5.68;;;;;;;;;;5038501;28;20454;-60
2022/01/13 08:03:55;;;;;;;6.93;6.07;;;;;;;;;;5043864;28;20036;-60
2022/01/13 08:06:21;;;;;;;6.22;5.60;;;;;;;;;;5038144;28;20536;-60
2022/01/13 08:08:46;;;;;;;6.72;5.70;;;;;;;;;;5040054;28;20048;-60
2022/01/13 08:11:11;;;;;;;8.20;5.78;;;;;;;;;;5038151;28;20029;-60
2022/01/13 08:13:37;;;;;;;6.30;5.68;;;;;;;;;;5039768;28;20041;-60
2022/01/13 08:16:07;;;;;;;6.68;5.20;;;;;;;;;;5038491;28;20140;-60
2022/01/13 08:21:17;;;;;;;6.75;6.03;;;;;;;;;;5037255;28;20025;-60
2022/01/13 08:23:43;;;;;;;6.93;5.38;;;;;;;;;;5040183;28;20032;-60
2022/01/13 08:26:08;;;;;;;6.60;4.80;;;;;;;;;;5036667;28;20033;-60
2022/01/13 08:28:34;;;;;;;6.75;5.43;;;;;;;;;;5037706;28;20065;-60
2022/01/13 08:30:59;;;;;;;6.95;5.22;;;;;;;;;;5040562;28;20038;-60
2022/01/13 08:33:25;;;;;;;18.70;5.50;;;;;;;;;;5040554;28;20064;-59
2022/01/13 08:35:52;;;;;;;6.18;5.32;;;;;;;;;;5039684;28;20029;-61
2022/01/13 08:38:19;;;;;;;8.15;6.03;;;;;;;;;;5041226;28;20047;-60
2022/01/13 08:40:49;;;;;;;7.20;5.65;;;;;;;;;;5040319;28;20044;-60
2022/01/13 08:43:16;;;;;;;8.43;5.50;;;;;;;;;;5038829;28;20036;-61
2022/01/13 08:45:42;;;;;;;6.47;5.35;;;;;;;;;;5037554;28;20036;-61
2022/01/13 08:48:08;;;;;;;6.70;5.10;;;;;;;;;;5040546;28;20032;-61
2022/01/13 08:50:34;;;;;;;6.88;4.97;;;;;;;;;;5040076;28;20029;-61
2022/01/13 08:53:00;;;;;;;4.82;4.32;;;;;;;;;;5041311;28;20110;-60
2022/01/13 08:55:26;;;;;;;6.43;4.95;;;;;;;;;;5041000;28;20037;-61
2022/01/13 08:57:52;;;;;;;3.85;3.45;;;;;;;;;;5040598;28;20040;-61
2022/01/13 09:00:18;;;;;;;4.88;4.43;;;;;;;;;;5036819;28;20037;-61
2022/01/13 09:02:44;;;;;;;5.45;4.47;;;;;;;;;;5037822;28;20394;-60
2022/01/13 09:05:12;;;;;;;4.93;4.13;;;;;;;;;;5040495;28;20051;-61
2022/01/13 09:07:37;;;;;;;6.45;5.03;;;;;;;;;;5042313;28;20770;-61
2022/01/13 09:10:04;;;;;;;5.93;4.95;;;;;;;;;;5037940;28;20041;-61
2022/01/13 09:12:29;;;;;;;6.10;5.18;;;;;;;;;;5038527;28;20034;-60
2022/01/13 09:15:01;;;;;;;8.05;4.50;;;;;;;;;;5040225;28;20056;-61
2022/01/13 09:17:27;;;;;;;5.05;4.55;;;;;;;;;;5038157;28;20037;-61
2022/01/13 09:19:52;;;;;;;8.90;4.85;;;;;;;;;;5037840;28;20033;-61
2022/01/13 09:22:19;;;;;;;5.22;4.72;;;;;;;;;;5039490;28;20025;-61
2022/01/13 09:24:44;;;;;;;3.92;3.53;;;;;;;;;;5037007;28;20442;-61
2022/01/13 09:27:09;;;;;;;5.15;4.65;;;;;;;;;;5038040;28;20024;-61
2022/01/13 09:29:35;;;;;;;7.10;5.15;;;;;;;;;;5040663;28;20041;-61
2022/01/13 09:32:02;;;;;;;4.28;3.88;;;;;;;;;;5037091;28;20036;-61
2022/01/13 09:34:27;;;;;;;5.65;5.07;;;;;;;;;;5034763;28;20037;-61
2022/01/13 09:36:53;;;;;;;6.00;4.63;;;;;;;;;;5037704;28;20072;-60
2022/01/13 09:39:18;;;;;;;7.18;5.20;;;;;;;;;;5042168;28;20025;-60
2022/01/13 09:41:45;;;;;;;7.05;4.72;;;;;;;;;;5037423;28;20135;-60
2022/01/13 09:44:13;;;;;;;6.45;5.13;;;;;;;;;;5036944;28;20033;-60
2022/01/13 09:46:39;;;;;;;4.47;4.05;;;;;;;;;;5038492;28;20052;-60
2022/01/13 09:49:05;;;;;;;8.27;5.30;;;;;;;;;;5035414;28;20462;-60
2022/01/13 09:51:32;;;;;;;5.43;4.93;;;;;;;;;;5036749;28;20033;-60
2022/01/13 09:53:58;;;;;;;7.82;4.55;;;;;;;;;;5038393;28;20048;-60
2022/01/13 09:56:24;;;;;;;5.50;4.97;;;;;;;;;;5038724;28;20033;-60
2022/01/13 09:58:50;;;;;;;5.88;5.28;;;;;;;;;;5038012;28;20498;-60
2022/01/13 10:01:16;;;;;;;10.80;5.55;;;;;;;;;;5037500;28;20029;-60
2022/01/13 10:03:42;;;;;;;4.47;4.07;;;;;;;;;;5035945;28;20470;-60
2022/01/13 10:06:17;;;;;;;5.10;4.60;;;;;;;;;;5039220;28;20047;-60
2022/01/13 10:08:49;;;;;;;5.45;4.88;;;;;;;;;;5034967;28;20031;-60
2022/01/13 10:11:39;;;;;;;9.35;6.47;;;;;;;;;;5037039;28;20030;-60
2022/01/13 10:16:23;;;;;;;5.00;4.47;;;;;;;;;;5040405;28;20029;-60
2022/01/13 10:17:05;;;;;;;6.18;5.43;;;;;;;;;;5037082;28;20446;-60
2022/01/13 10:19:37;;;;;;;4.97;4.25;;;;;;;;;;5037301;28;20128;-60
2022/01/13 10:22:07;;;;;;;6.25;5.38;;;;;;;;;;5044346;28;20018;-60
2022/01/13 10:24:35;;;;;;;6.88;4.57;;;;;;;;;;5034986;28;20038;-60
2022/01/13 10:27:09;;;;;;;6.22;5.63;;;;;;;;;;5038153;28;20032;-60
2022/01/13 10:29:44;;;;;;;24.27;5.22;;;;;;;;;;5036682;28;20040;-59
2022/01/13 10:32:13;;;;;;;5.60;5.03;;;;;;;;;;5035940;28;20126;-59
2022/01/13 10:34:42;;;;;;;5.40;4.88;;;;;;;;;;5033428;28;20471;-60
2022/01/13 10:37:16;;;;;;;6.90;5.25;;;;;;;;;;5037101;28;20039;-60
2022/01/13 10:39:59;;;;;;;5.32;4.82;;;;;;;;;;5040193;28;20048;-60
2022/01/13 10:45:14;;;;;;;6.05;5.18;;;;;;;;;;5037984;28;20029;-61
2022/01/13 10:47:40;;;;;;;6.90;4.90;;;;;;;;;;5043035;28;20090;-61
2022/01/13 10:50:09;;;;;;;5.47;4.97;;;;;;;;;;5042432;28;20025;-61
2022/01/13 10:52:34;;;;;;;6.72;4.68;;;;;;;;;;5045172;28;20064;-61
2022/01/13 10:55:09;;;;;;;6.78;6.07;;;;;;;;;;5041468;28;20025;-61
2022/01/13 10:57:36;;;;;;;6.28;5.68;;;;;;;;;;5043427;28;20041;-61
2022/01/13 11:00:17;;;;;;;7.25;5.82;;;;;;;;;;5041235;28;20025;-61
2022/01/13 11:03:01;;;;;;;5.68;5.13;;;;;;;;;;5037056;28;20040;-60
2022/01/13 11:05:27;;;;;;;5.93;5.32;;;;;;;;;;5040852;28;20048;-60
2022/01/13 11:07:53;;;;;;;8.93;5.80;;;;;;;;;;5037816;28;20025;-60
2022/01/13 11:10:21;;;;;;;6.47;5.03;;;;;;;;;;5039746;28;20473;-61
2022/01/13 11:12:54;;;;;;;7.75;5.57;;;;;;;;;;5041128;28;20067;-59
2022/01/13 11:15:20;;;;;;;6.38;5.78;;;;;;;;;;5040112;28;20090;-60
2022/01/13 11:17:46;;;;;;;8.45;6.20;;;;;;;;;;5037260;28;20041;-60
2022/01/13 11:20:14;;;;;;;6.55;5.43;;;;;;;;;;5041662;28;20037;-60
2022/01/13 11:22:42;;;;;;;6.57;5.88;;;;;;;;;;5037878;28;20572;-60
2022/01/13 11:25:16;;;;;;;7.50;5.72;;;;;;;;;;5043398;28;20056;-60
2022/01/13 11:27:42;;;;;;;4.78;4.38;;;;;;;;;;5041349;28;20037;-60
2022/01/13 11:30:14;;;;;;;4.40;3.95;;;;;;;;;;5037874;28;20075;-60
2022/01/13 11:32:39;;;;;;;;;;;;;;;;;;5040367;28;20041;-60
2022/01/13 11:35:06;;;;;;;6.75;4.55;;;;;;;;;;5039826;28;19917;-61
2022/01/13 11:37:32;;;;;;;8.98;6.20;;;;;;;;;;5040835;28;20103;-61
2022/01/13 11:39:58;;;;;;;10.07;6.15;;;;;;;;;;5038297;28;20037;-60
2022/01/13 11:42:24;;;;;;;6.93;5.40;;;;;;;;;;5037811;28;20138;-61
2022/01/13 11:45:09;;;;;;;11.35;5.55;;;;;;;;;;5042243;28;20109;-60
2022/01/13 11:47:34;;;;;;;5.65;5.07;;;;;;;;;;5040423;28;20037;-60
2022/01/13 11:50:31;;;;;;;9.80;5.15;;;;;;;;;;5038513;28;20476;-61
2022/01/13 11:52:57;;;;;;;6.38;5.78;;;;;;;;;;5042094;28;20186;-60
2022/01/13 11:55:32;;;;;;;5.20;4.72;;;;;;;;;;5041121;28;20672;-60
2022/01/13 12:01:53;;;;;;;6.60;5.20;;;;;;;;;;5019670;28;20179;-61
2022/01/13 12:04:23;;;;;;;6.15;5.03;;;;;;;;;;5014821;28;20057;-61
2022/01/13 12:06:49;;;;;;;7.40;5.95;;;;;;;;;;5029302;28;20479;-60
2022/01/13 12:09:21;;;;;;;5.40;4.90;;;;;;;;;;5029950;28;20032;-59
2022/01/13 12:11:53;;;;;;;8.07;7.28;;;;;;;;;;5030197;28;20044;-59
2022/01/13 12:14:25;;;;;;;5.32;4.82;;;;;;;;;;5033803;28;20072;-59
2022/01/13 12:17:35;;;;;;;6.63;5.95;;;;;;;;;;5031730;28;20052;-60
2022/01/13 12:20:21;;;;;;;6.70;6.00;;;;;;;;;;5032061;28;20033;-56
2022/01/13 12:22:56;;;;;;;5.50;5.00;;;;;;;;;;5029486;28;20053;-56
2022/01/13 12:25:21;;;;;;;6.68;5.90;;;;;;;;;;5029886;28;20080;-57
2022/01/13 12:27:49;;;;;;;8.02;7.22;;;;;;;;;;5030495;28;20076;-54
2022/01/13 12:30:15;;;;;;;6.85;6.05;;;;;;;;;;5028867;28;20037;-56
2022/01/13 12:32:45;;;;;;;8.82;6.38;;;;;;;;;;5027039;28;20056;-55
2022/01/13 12:35:14;;;;;;;5.40;4.93;;;;;;;;;;5029251;28;20131;-56
2022/01/13 12:37:40;;;;;;;6.07;5.43;;;;;;;;;;5030010;28;20033;-55
2022/01/13 12:40:14;;;;;;;6.63;5.55;;;;;;;;;;5028807;28;20128;-55
2022/01/13 12:42:51;;;;;;;6.07;5.47;;;;;;;;;;5027955;28;20033;-56
2022/01/13 12:45:28;;;;;;;8.77;6.68;;;;;;;;;;5028034;28;20033;-56
2022/01/13 12:48:14;;;;;;;6.40;5.75;;;;;;;;;;5028621;28;20029;-55
2022/01/13 12:50:45;;;;;;;7.50;4.93;;;;;;;;;;5028341;28;20091;-56
2022/01/13 12:53:10;;;;;;;7.20;5.68;;;;;;;;;;5028698;28;20045;-57
2022/01/13 12:55:38;;;;;;;7.30;6.15;;;;;;;;;;5028385;28;20107;-56
2022/01/13 12:58:04;;;;;;;8.20;6.85;;;;;;;;;;5026888;28;20041;-56
2022/01/13 13:00:30;;;;;;;7.68;6.88;;;;;;;;;;5027200;28;20037;-56
2022/01/13 13:03:05;;;;;;;8.65;5.63;;;;;;;;;;5027547;28;20095;-56
2022/01/13 13:05:36;;;;;;;6.22;5.63;;;;;;;;;;5031716;28;20064;-56
2022/01/13 13:08:02;;;;;;;9.75;6.57;;;;;;;;;;5029825;28;20040;-56
2022/01/13 13:10:29;;;;;;;4.82;4.32;;;;;;;;;;5029081;28;20160;-56
2022/01/13 13:12:55;;;;;;;6.18;5.57;;;;;;;;;;5029213;28;20474;-57
2022/01/13 13:17:51;;;;;;;6.82;6.15;;;;;;;;;;5026449;28;20111;-55
2022/01/13 13:20:35;;;;;;;7.90;6.07;;;;;;;;;;5026313;28;20348;-55
2022/01/13 13:23:06;;;;;;;7.82;7.03;;;;;;;;;;5030436;28;20037;-56
2022/01/13 13:26:04;;;;;;;8.10;7.03;;;;;;;;;;5028599;28;20110;-56
2022/01/13 13:28:38;;;;;;;5.03;4.40;;;;;;;;;;5029379;28;20080;-56
2022/01/13 13:31:17;;;;;;;5.22;4.53;;;;;;;;;;5030113;28;20072;-55
2022/01/13 13:33:54;;;;;;;7.30;6.07;;;;;;;;;;5031235;28;20410;-56
2022/01/13 13:36:22;;;;;;;6.60;5.10;;;;;;;;;;5027108;28;20459;-57
2022/01/13 13:38:55;;;;;;;6.90;6.13;;;;;;;;;;5025868;28;20037;-56
2022/01/13 13:41:32;;;;;;;5.93;5.32;;;;;;;;;;5026696;28;20045;-56
2022/01/13 13:43:59;;;;;;;5.20;4.72;;;;;;;;;;5027297;28;20029;-56
2022/01/13 13:46:25;;;;;;;5.35;4.85;;;;;;;;;;5026138;28;20042;-56
2022/01/13 13:48:51;;;;;;;7.13;6.43;;;;;;;;;;5025388;28;20179;-56
2022/01/13 13:51:23;;;;;;;5.85;5.32;;;;;;;;;;5025546;28;20482;-57
2022/01/13 13:54:11;;;;;;;6.25;5.55;;;;;;;;;;5026595;28;20044;-56
2022/01/13 13:56:39;;;;;;;4.95;4.45;;;;;;;;;;5027255;28;20044;-56
2022/01/13 13:59:06;;;;;;;10.95;5.88;;;;;;;;;;5025644;28;20442;-57
2022/01/13 14:01:31;;;;;;;5.82;5.18;;;;;;;;;;5032202;28;20025;-56
2022/01/13 14:03:57;;;;;;;6.03;5.43;;;;;;;;;;5031765;28;20047;-56
2022/01/13 14:06:44;;;;;;;7.45;5.85;;;;;;;;;;5031912;28;20639;-57
2022/01/13 14:09:11;;;;;;;7.45;6.03;;;;;;;;;;5029610;28;20116;-57
2022/01/13 14:12:03;;;;;;;9.35;6.65;;;;;;;;;;5018667;28;20041;-55
2022/01/13 14:14:35;;;;;;;7.80;6.53;;;;;;;;;;5031592;28;20056;-56
2022/01/13 14:17:01;;;;;;;7.95;6.55;;;;;;;;;;5045852;28;20374;-55
2022/01/13 14:19:26;;;;;;;9.85;6.45;;;;;;;;;;5029809;28;20037;-56
2022/01/13 14:21:53;;;;;;;6.15;5.55;;;;;;;;;;5032231;28;20400;-54
2022/01/13 14:24:37;;;;;;;6.07;5.47;;;;;;;;;;5034519;28;20040;-55
2022/01/13 14:27:08;;;;;;;7.70;6.15;;;;;;;;;;5034851;28;20334;-55
2022/01/13 14:29:34;;;;;;;8.70;7.30;;;;;;;;;;5032002;28;20530;-56
2022/01/13 14:32:20;;;;;;;6.00;5.40;;;;;;;;;;5033170;28;20144;-56
2022/01/13 14:35:04;;;;;;;6.85;6.15;;;;;;;;;;5032623;28;20037;-57
2022/01/13 14:37:29;;;;;;;6.45;5.65;;;;;;;;;;5034856;28;20502;-57
2022/01/13 14:40:05;;;;;;;5.97;5.38;;;;;;;;;;5030557;28;20119;-56
2022/01/13 14:42:31;;;;;;;7.50;5.32;;;;;;;;;;5030327;28;20037;-56
2022/01/13 14:45:22;;;;;;;6.45;5.82;;;;;;;;;;5032729;28;20037;-57
2022/01/13 14:47:49;;;;;;;6.55;5.60;;;;;;;;;;5033354;28;20025;-57
2022/01/13 14:50:15;;;;;;;5.80;4.75;;;;;;;;;;5031434;28;20048;-57
2022/01/13 14:52:40;;;;;;;20.45;12.65;;;;;;;;;;5033354;28;20038;-57
2022/01/13 14:55:06;;;;;;;7.57;6.88;;;;;;;;;;5031954;28;20039;-55
2022/01/13 14:57:32;;;;;;;7.28;6.30;;;;;;;;;;5035511;28;20049;-58
2022/01/13 14:59:57;;;;;;;7.22;5.45;;;;;;;;;;5049919;28;20076;-58
2022/01/13 15:02:23;;;;;;;7.70;5.40;;;;;;;;;;5032484;28;20075;-58
2022/01/13 15:04:48;;;;;;;6.53;5.65;;;;;;;;;;5034176;28;20093;-57
2022/01/13 15:07:13;;;;;;;6.13;5.53;;;;;;;;;;5033062;28;20030;-57
2022/01/13 15:09:39;;;;;;;5.10;3.83;;;;;;;;;;5033519;28;20029;-58
2022/01/13 15:12:05;;;;;;;6.00;5.40;;;;;;;;;;5033552;28;20056;-58
2022/01/13 15:14:30;;;;;;;6.43;5.07;;;;;;;;;;5031453;28;20522;-58
2022/01/13 15:16:56;;;;;;;9.40;7.22;;;;;;;;;;5037362;28;20090;-56
2022/01/13 15:19:24;;;;;;;7.55;6.60;;;;;;;;;;5032929;28;20029;-58